createdAt,value
2022-09-09T00:02:05.640Z,1.20
2022-09-09T00:04:35.984Z,1.02
2022-09-09T00:07:23.064Z,0.90
2022-09-09T00:10:20.331Z,1.20
2022-09-09T00:13:33.071Z,1.13
2022-09-09T00:16:20.213Z,0.95
2022-09-09T00:19:16.676Z,1.10
2022-09-09T00:21:58.944Z,1.20
2022-09-09T00:24:31.079Z,1.00
2022-09-09T00:27:11.987Z,0.85
2022-09-09T00:32:18.620Z,0.95
2022-09-09T00:35:12.008Z,1.20
2022-09-09T00:37:41.222Z,0.90
2022-09-09T00:40:27.873Z,1.08
2022-09-09T00:43:31.483Z,0.93
2022-09-09T00:46:01.521Z,1.17
2022-09-09T00:48:41.898Z,1.33
2022-09-09T00:51:18.474Z,0.90
2022-09-09T00:54:07.861Z,1.00
2022-09-09T00:57:16.784Z,0.95
2022-09-09T00:59:51.501Z,0.90
2022-09-09T01:02:47.489Z,1.00
2022-09-09T01:05:25.397Z,1.10
2022-09-09T01:07:56.378Z,1.20
2022-09-09T01:10:48.712Z,1.20
2022-09-09T01:13:36.971Z,1.02
2022-09-09T01:16:14.652Z,1.20
2022-09-09T01:18:50.592Z,1.17
2022-09-09T01:21:49.654Z,1.40
2022-09-09T01:24:55.877Z,1.15
2022-09-09T01:27:44.635Z,1.40
2022-09-09T01:30:15.047Z,1.27
2022-09-09T01:32:44.829Z,1.13
2022-09-09T01:35:33.922Z,1.00
2022-09-09T01:38:02.876Z,1.33
2022-09-09T01:40:30.401Z,1.25
2022-09-09T01:42:59.054Z,1.13
2022-09-09T01:45:26.515Z,1.02
2022-09-09T01:47:54.319Z,1.30
2022-09-09T01:50:42.328Z,1.42
2022-09-09T01:53:09.833Z,1.50
2022-09-09T01:55:43.580Z,0.75
2022-09-09T01:58:34.747Z,1.52
2022-09-09T02:01:11.413Z,1.20
2022-09-09T02:03:39.375Z,1.02
2022-09-09T02:06:35.022Z,1.33
2022-09-09T02:09:13.946Z,1.20
2022-09-09T02:11:45.765Z,1.20
2022-09-09T02:14:26.426Z,1.63
2022-09-09T02:17:11.789Z,1.80
2022-09-09T02:20:05.867Z,1.70
2022-09-09T02:22:45.475Z,1.60
2022-09-09T02:25:18.836Z,2.03
2022-09-09T02:27:49.307Z,1.40
2022-09-09T02:30:17.095Z,1.63
2022-09-09T02:32:53.545Z,1.38
2022-09-09T02:35:25.703Z,1.77
2022-09-09T02:37:56.529Z,2.13
2022-09-09T02:40:24.448Z,1.70
2022-09-09T02:42:58.775Z,1.60
2022-09-09T02:45:35.617Z,1.63
2022-09-09T02:48:19.035Z,1.83
2022-09-09T02:51:15.187Z,1.88
2022-09-09T02:54:00.945Z,1.77
2022-09-09T02:56:34.811Z,1.65
2022-09-09T02:59:05.586Z,1.90
2022-09-09T03:01:36.743Z,1.90
2022-09-09T03:04:06.458Z,1.75
2022-09-09T03:06:34.305Z,1.80
2022-09-09T03:09:11.638Z,1.90
2022-09-09T03:11:39.668Z,2.40
2022-09-09T03:14:07.735Z,2.42
2022-09-09T03:16:35.920Z,2.28
2022-09-09T03:19:03.057Z,2.22
2022-09-09T03:21:30.578Z,2.38
2022-09-09T03:23:58.339Z,2.28
2022-09-09T03:26:25.558Z,2.35
2022-09-09T03:28:53.263Z,2.00
2022-09-09T03:31:23.312Z,1.95
2022-09-09T03:33:51.355Z,1.90
2022-09-09T03:36:20.382Z,1.75
2022-09-09T03:38:47.439Z,1.98
2022-09-09T03:41:15.460Z,2.30
2022-09-09T03:43:43.468Z,2.53
2022-09-09T03:46:10.665Z,2.00
2022-09-09T03:48:38.411Z,2.05
2022-09-09T03:51:06.159Z,1.65
2022-09-09T03:53:35.360Z,2.17
2022-09-09T03:56:04.304Z,2.13
2022-09-09T03:58:32.341Z,2.08
2022-09-09T04:01:14.457Z,2.22
2022-09-09T04:03:43.490Z,1.70
2022-09-09T04:06:14.361Z,2.55
2022-09-09T04:08:43.046Z,1.70
2022-09-09T04:11:10.808Z,2.30
2022-09-09T04:13:40.315Z,2.10
2022-09-09T04:16:12.593Z,2.55
2022-09-09T04:18:41.828Z,2.30
2022-09-09T04:21:11.204Z,2.55
2022-09-09T04:23:38.259Z,2.08
2022-09-09T04:26:06.673Z,1.88
2022-09-09T04:28:37.498Z,1.90
2022-09-09T04:31:19.015Z,1.35
2022-09-09T04:33:47.624Z,0.80
2022-09-09T04:36:15.191Z,2.65
2022-09-09T04:38:43.741Z,1.67
2022-09-09T04:41:12.268Z,2.20
2022-09-09T04:43:42.150Z,2.22
2022-09-09T04:46:10.109Z,2.45
2022-09-09T04:48:37.436Z,1.90
2022-09-09T04:51:10.498Z,2.10
2022-09-09T04:56:11.184Z,2.55
2022-09-09T04:58:44.124Z,2.20
2022-09-09T05:01:15.237Z,1.38
2022-09-09T05:03:48.788Z,1.98
2022-09-09T05:06:21.820Z,2.42
2022-09-09T05:08:51.967Z,2.30
2022-09-09T05:11:26.885Z,2.08
2022-09-09T05:13:58.532Z,2.08
2022-09-09T05:16:25.938Z,1.98
2022-09-09T05:18:53.305Z,0.75
2022-09-09T05:21:22.812Z,1.85
2022-09-09T05:23:51.907Z,1.58
2022-09-09T05:26:21.973Z,1.30
2022-09-09T05:28:51.102Z,1.70
2022-09-09T05:31:20.137Z,1.02
2022-09-09T05:33:50.612Z,1.25
2022-09-09T05:36:21.343Z,1.73
2022-09-09T05:38:51.479Z,1.58
2022-09-09T05:41:21.023Z,1.52
2022-09-09T05:43:50.084Z,0.82
2022-09-09T05:46:21.001Z,1.60
2022-09-09T05:48:51.976Z,1.45
2022-09-09T05:51:23.446Z,1.10
2022-09-09T05:53:52.286Z,1.08
2022-09-09T05:56:26.313Z,0.82
2022-09-09T05:58:55.127Z,0.70
2022-09-09T06:01:28.424Z,1.30
2022-09-09T06:03:56.098Z,1.20
2022-09-09T06:06:29.740Z,0.50
2022-09-09T06:08:59.251Z,0.77
2022-09-09T06:11:32.469Z,0.95
2022-09-09T06:14:01.196Z,0.60
2022-09-09T06:16:31.667Z,0.40
2022-09-09T06:19:00.716Z,0.73
2022-09-09T06:21:31.227Z,1.27
2022-09-09T06:24:01.350Z,0.38
2022-09-09T06:26:35.096Z,0.45
2022-09-09T06:29:05.084Z,0.65
2022-09-09T06:31:35.584Z,0.50
2022-09-09T06:34:12.624Z,0.30
2022-09-09T06:36:42.637Z,0.70
2022-09-09T06:39:14.619Z,1.20
2022-09-09T06:41:43.832Z,0.40
2022-09-09T06:44:35.195Z,0.65
2022-09-09T06:47:03.803Z,0.95
2022-09-09T06:49:32.069Z,0.95
2022-09-09T06:51:59.596Z,0.70
2022-09-09T06:54:29.593Z,0.52
2022-09-09T06:56:56.871Z,0.65
2022-09-09T06:59:25.458Z,0.40
2022-09-09T07:01:56.532Z,0.68
2022-09-09T07:04:24.927Z,0.50
2022-09-09T07:06:53.613Z,0.43
2022-09-09T07:09:26.127Z,0.50
2022-09-09T07:11:54.573Z,0.45
2022-09-09T07:14:23.819Z,0.60
2022-09-09T07:17:01.414Z,0.60
2022-09-09T07:19:35.167Z,0.60
2022-09-09T07:22:04.701Z,0.60
2022-09-09T07:24:32.799Z,0.40
2022-09-09T07:27:00.668Z,1.00
2022-09-09T07:29:28.139Z,0.68
2022-09-09T07:32:14.063Z,0.60
2022-09-09T07:34:41.194Z,0.80
2022-09-09T07:37:09.054Z,0.80
2022-09-09T07:39:36.831Z,0.70
2022-09-09T07:42:05.405Z,0.60
2022-09-09T07:44:35.898Z,0.68
2022-09-09T07:47:12.346Z,0.90
2022-09-09T07:49:43.801Z,0.98
2022-09-09T07:52:12.593Z,0.73
2022-09-09T07:54:43.673Z,0.50
2022-09-09T07:57:11.692Z,0.70
2022-09-09T07:59:39.229Z,0.77
2022-09-09T08:02:06.574Z,0.90
2022-09-09T08:04:36.078Z,0.60
2022-09-09T08:07:04.483Z,0.47
2022-09-09T08:09:37.630Z,0.40
2022-09-09T08:12:14.129Z,0.60
2022-09-09T08:14:41.461Z,0.77
2022-09-09T08:17:09.225Z,0.40
2022-09-09T08:19:37.022Z,1.45
2022-09-09T08:22:09.576Z,1.92
2022-09-09T08:24:39.450Z,2.08
2022-09-09T08:27:06.658Z,1.00
2022-09-09T08:29:33.897Z,0.75
2022-09-09T08:32:01.118Z,0.50
2022-09-09T08:34:31.374Z,0.88
2022-09-09T08:37:01.195Z,0.50
2022-09-09T08:39:38.643Z,0.50
2022-09-09T08:42:12.848Z,0.90
2022-09-09T08:45:27.601Z,0.70
2022-09-09T08:48:03.969Z,0.60
2022-09-09T08:50:41.867Z,0.57
2022-09-09T08:53:27.743Z,0.80
2022-09-09T08:56:00.976Z,0.90
2022-09-09T08:58:41.677Z,0.60
2022-09-09T09:01:41.864Z,0.55
2022-09-09T09:04:26.800Z,0.63
2022-09-09T09:07:22.310Z,0.60
2022-09-09T09:10:42.954Z,0.70
2022-09-09T09:13:25.700Z,0.65
2022-09-09T09:16:03.274Z,0.60
2022-09-09T09:18:30.566Z,0.82
2022-09-09T09:21:16.195Z,0.75
2022-09-09T09:23:57.413Z,0.75
2022-09-09T09:26:36.296Z,0.60
2022-09-09T09:29:17.441Z,0.60
2022-09-09T09:31:58.437Z,0.90
2022-09-09T09:34:26.637Z,1.00
2022-09-09T09:37:04.625Z,0.75
2022-09-09T09:42:28.232Z,0.45
2022-09-09T09:45:08.079Z,0.60
2022-09-09T09:47:35.614Z,0.55
2022-09-09T09:50:21.503Z,0.60
2022-09-09T09:52:58.449Z,0.40
2022-09-09T09:55:28.562Z,0.40
2022-09-09T09:58:02.831Z,0.57
2022-09-09T10:00:30.432Z,0.55
2022-09-09T10:03:22.563Z,0.70
2022-09-09T10:05:50.872Z,0.50
2022-09-09T10:08:18.618Z,0.70
2022-09-09T10:11:04.257Z,1.13
2022-09-09T10:13:43.293Z,0.57
2022-09-09T10:16:37.791Z,0.52
2022-09-09T10:19:16.418Z,0.60
2022-09-09T10:21:44.019Z,0.30
2022-09-09T10:24:16.867Z,0.50
2022-09-09T10:26:58.320Z,0.70
2022-09-09T10:29:39.060Z,0.70
2022-09-09T10:35:36.144Z,0.50
2022-09-09T10:38:24.337Z,0.50
2022-09-09T10:40:54.293Z,0.70
2022-09-09T10:43:41.902Z,0.38
2022-09-09T10:46:37.148Z,0.50
2022-09-09T10:49:23.840Z,0.40
2022-09-09T10:52:08.652Z,0.40
2022-09-09T10:54:47.848Z,0.57
2022-09-09T10:57:28.117Z,0.60
2022-09-09T11:00:01.041Z,0.70
2022-09-09T11:02:31.321Z,1.02
2022-09-09T11:05:04.950Z,0.77
2022-09-09T11:07:44.219Z,0.40
2022-09-09T11:10:35.464Z,0.60
2022-09-09T11:13:06.635Z,0.50
2022-09-09T11:15:42.779Z,0.65
2022-09-09T11:18:18.381Z,0.50
2022-09-09T11:20:48.572Z,0.60
2022-09-09T11:23:27.062Z,0.50
2022-09-09T11:25:58.766Z,0.45
2022-09-09T11:28:50.426Z,0.70
2022-09-09T11:31:39.037Z,0.43
2022-09-09T11:34:43.060Z,0.90
2022-09-09T11:37:22.376Z,0.52
2022-09-09T11:40:07.981Z,0.80
2022-09-09T11:42:35.706Z,0.60
2022-09-09T11:45:23.117Z,0.50
2022-09-09T11:47:55.816Z,0.32
2022-09-09T11:50:22.903Z,0.63
2022-09-09T11:52:51.082Z,0.90
2022-09-09T11:55:28.223Z,0.57
2022-09-09T11:58:06.500Z,0.90
2022-09-09T12:00:48.104Z,0.80
2022-09-09T12:03:46.164Z,0.50
2022-09-09T12:06:34.447Z,0.50
2022-09-09T12:09:35.655Z,0.70
2022-09-09T12:12:27.119Z,0.70
2022-09-09T12:15:18.519Z,0.63
2022-09-09T12:17:51.791Z,0.50
2022-09-09T12:20:32.426Z,0.75
2022-09-09T12:23:36.953Z,0.85
2022-09-09T12:26:31.688Z,0.80
2022-09-09T12:29:10.698Z,0.73
2022-09-09T12:31:58.108Z,0.60
2022-09-09T12:34:40.368Z,0.63
2022-09-09T12:37:14.136Z,0.60
2022-09-09T12:39:50.740Z,0.60
2022-09-09T12:42:23.275Z,1.17
2022-09-09T12:44:55.282Z,0.65
2022-09-09T12:47:45.686Z,0.70
2022-09-09T12:50:27.570Z,0.80
2022-09-09T12:53:03.061Z,0.90
2022-09-09T12:55:34.665Z,0.68
2022-09-09T12:58:07.352Z,0.60
2022-09-09T13:00:36.248Z,1.00
2022-09-09T13:03:18.289Z,0.80
2022-09-09T13:05:45.832Z,1.33
2022-09-09T13:08:15.080Z,0.80
2022-09-09T13:10:53.701Z,0.70
2022-09-09T13:13:33.952Z,0.90
2022-09-09T13:16:02.851Z,0.70
2022-09-09T13:18:34.328Z,0.98
2022-09-09T13:21:01.704Z,1.00
2022-09-09T13:23:33.435Z,1.30
2022-09-09T13:26:08.724Z,1.63
2022-09-09T13:28:39.020Z,0.70
2022-09-09T13:31:20.206Z,1.02
2022-09-09T13:33:47.550Z,0.90
2022-09-09T13:36:18.376Z,0.93
2022-09-09T13:41:35.092Z,0.80
2022-09-09T13:44:04.327Z,1.30
2022-09-09T13:46:36.599Z,0.98
2022-09-09T13:49:12.440Z,1.10
2022-09-09T13:52:16.615Z,1.20
2022-09-09T13:54:44.012Z,1.33
2022-09-09T13:57:19.236Z,0.82
2022-09-09T14:00:04.016Z,1.10
2022-09-09T14:02:32.294Z,1.40
2022-09-09T14:04:59.544Z,1.10
2022-09-09T14:07:26.814Z,1.00
2022-09-09T14:09:53.904Z,0.95
2022-09-09T14:12:22.692Z,2.00
2022-09-09T14:14:50.758Z,0.45
2022-09-09T14:17:18.553Z,1.10
2022-09-09T14:19:47.074Z,1.05
2022-09-09T14:22:14.585Z,0.90
2022-09-09T14:24:42.000Z,1.40
2022-09-09T14:27:09.898Z,1.15
2022-09-09T14:29:37.007Z,1.13
2022-09-09T14:32:04.185Z,0.70
2022-09-09T14:34:33.306Z,1.25
2022-09-09T14:37:00.598Z,1.30
2022-09-09T14:39:27.866Z,0.90
2022-09-09T14:41:55.184Z,1.20
2022-09-09T14:44:22.925Z,1.30
2022-09-09T14:46:51.312Z,0.80
2022-09-09T14:49:18.480Z,1.30
2022-09-09T14:51:45.646Z,1.10
2022-09-09T14:54:13.313Z,1.10
2022-09-09T14:56:40.531Z,1.20
2022-09-09T14:59:07.730Z,2.70
2022-09-09T15:01:35.359Z,1.65
2022-09-09T15:04:05.267Z,1.73
2022-09-09T15:06:34.783Z,1.23
2022-09-09T15:09:02.491Z,1.40
2022-09-09T15:11:33.162Z,2.13
2022-09-09T15:14:00.381Z,1.17
2022-09-09T15:16:29.427Z,1.30
2022-09-09T15:18:58.752Z,1.40
2022-09-09T15:21:28.606Z,1.50
2022-09-09T15:23:57.074Z,1.40
2022-09-09T15:26:25.100Z,1.10
2022-09-09T15:28:52.258Z,1.20
2022-09-09T15:31:27.867Z,1.50
2022-09-09T15:34:06.538Z,1.50
2022-09-09T15:36:38.906Z,1.40
2022-09-09T15:39:13.759Z,1.58
2022-09-09T15:41:41.139Z,1.48
2022-09-09T15:44:09.851Z,1.42
2022-09-09T15:46:39.988Z,2.35
2022-09-09T15:49:16.471Z,1.40
2022-09-09T15:51:46.408Z,1.80
2022-09-09T15:54:19.191Z,1.50
2022-09-09T15:56:51.043Z,1.58
2022-09-09T15:59:18.353Z,1.60
2022-09-09T16:01:45.702Z,1.60
2022-09-09T16:04:13.183Z,1.90
2022-09-09T16:06:40.523Z,1.70
2022-09-09T16:09:08.810Z,1.80
2022-09-09T16:11:38.557Z,2.00
2022-09-09T16:14:07.767Z,2.00
2022-09-09T16:16:36.327Z,1.50
2022-09-09T16:19:08.630Z,1.75
2022-09-09T16:21:38.734Z,2.00
2022-09-09T16:24:07.947Z,2.00
2022-09-09T16:26:37.797Z,2.28
2022-09-09T16:29:05.767Z,2.13
2022-09-09T16:31:33.325Z,1.75
2022-09-09T16:34:00.923Z,2.72
2022-09-09T16:36:31.430Z,2.25
2022-09-09T16:39:01.054Z,2.35
2022-09-09T16:41:30.019Z,2.42
2022-09-09T16:44:03.450Z,2.40
2022-09-09T16:46:33.225Z,2.22
2022-09-09T16:49:01.756Z,2.47
2022-09-09T16:51:35.499Z,3.22
2022-09-09T16:54:05.590Z,2.25
2022-09-09T16:56:38.063Z,3.00
2022-09-09T16:59:17.535Z,4.15
2022-09-09T17:01:47.346Z,3.38
2022-09-09T17:04:25.315Z,3.87
2022-09-09T17:06:54.833Z,4.13
2022-09-09T17:09:23.994Z,4.47
2022-09-09T17:11:53.183Z,4.20
2022-09-09T17:14:23.069Z,3.50
2022-09-09T17:16:50.815Z,3.53
2022-09-09T17:19:18.812Z,4.10
2022-09-09T17:22:15.607Z,5.25
2022-09-09T17:24:35.612Z,4.75
2022-09-09T17:27:03.448Z,4.57
2022-09-09T17:29:30.698Z,4.32
2022-09-09T17:32:00.952Z,3.60
2022-09-09T17:34:28.040Z,4.18
2022-09-09T17:36:55.326Z,4.90
2022-09-09T17:39:22.878Z,6.05
2022-09-09T17:41:50.026Z,6.22
2022-09-09T17:44:17.429Z,5.28
2022-09-09T17:46:46.372Z,9.45
2022-09-09T17:49:16.644Z,5.07
2022-09-09T17:51:44.796Z,6.00
2022-09-09T17:54:15.388Z,5.00
2022-09-09T17:56:43.240Z,4.88
2022-09-09T17:59:12.358Z,5.35
2022-09-09T18:01:41.558Z,5.68
2022-09-09T18:04:10.516Z,5.68
2022-09-09T18:06:51.531Z,5.25
2022-09-09T18:09:21.774Z,5.47
2022-09-09T18:11:51.677Z,5.65
2022-09-09T18:14:22.674Z,4.57
2022-09-09T18:16:50.755Z,5.10
2022-09-09T18:19:21.278Z,4.20
2022-09-09T18:21:49.264Z,4.53
2022-09-09T18:24:18.273Z,4.15
2022-09-09T18:26:45.751Z,4.32
2022-09-09T18:29:16.037Z,4.18
2022-09-09T18:31:43.356Z,4.22
2022-09-09T18:34:16.629Z,4.55
2022-09-09T18:36:46.941Z,4.35
2022-09-09T18:39:16.823Z,4.90
2022-09-09T18:41:49.482Z,6.25
2022-09-09T18:44:20.899Z,4.72
2022-09-09T18:46:49.353Z,5.10
2022-09-09T18:49:16.705Z,4.20
2022-09-09T18:51:46.565Z,5.18
2022-09-09T18:54:19.845Z,5.23
2022-09-09T18:56:47.859Z,5.20
2022-09-09T18:59:19.785Z,4.55
2022-09-09T19:01:48.706Z,5.03
2022-09-09T19:04:16.814Z,5.82
2022-09-09T19:06:47.372Z,5.53
2022-09-09T19:09:17.250Z,5.30
2022-09-09T19:11:45.112Z,5.93
2022-09-09T19:14:15.478Z,6.00
2022-09-09T19:16:44.499Z,5.35
2022-09-09T19:19:27.596Z,5.60
2022-09-09T19:21:58.008Z,5.45
2022-09-09T19:24:28.127Z,5.20
2022-09-09T19:27:02.031Z,4.25
2022-09-09T19:29:32.663Z,4.82
2022-09-09T19:32:42.238Z,4.30
2022-09-09T19:34:50.815Z,4.55
2022-09-09T19:37:18.869Z,4.45
2022-09-09T19:39:47.219Z,5.05
2022-09-09T19:42:14.696Z,4.93
2022-09-09T19:44:41.821Z,5.28
2022-09-09T19:47:09.021Z,5.00
2022-09-09T19:49:37.309Z,6.05
2022-09-09T19:52:04.867Z,5.30
2022-09-09T19:54:32.494Z,4.90
2022-09-09T19:57:01.254Z,5.38
2022-09-09T19:59:28.564Z,5.13
2022-09-09T20:01:59.176Z,5.50
2022-09-09T20:04:26.457Z,5.00
2022-09-09T20:06:54.093Z,4.90
2022-09-09T20:09:21.844Z,5.28
2022-09-09T20:11:49.678Z,5.40
2022-09-09T20:14:18.287Z,5.03
2022-09-09T20:16:46.486Z,5.40
2022-09-09T20:19:16.368Z,4.93
2022-09-09T20:21:48.608Z,4.88
2022-09-09T20:24:19.467Z,5.18
2022-09-09T20:29:17.729Z,5.50
2022-09-09T20:31:45.446Z,5.22
2022-09-09T20:34:15.277Z,5.50
2022-09-09T20:36:42.590Z,7.10
2022-09-09T20:39:15.685Z,5.82
2022-09-09T20:41:44.635Z,6.00
2022-09-09T20:44:15.585Z,5.90
2022-09-09T20:49:17.142Z,5.32
2022-09-09T20:51:45.562Z,5.90
2022-09-09T20:54:15.919Z,6.15
2022-09-09T20:56:44.539Z,6.95
2022-09-09T20:59:18.444Z,6.20
2022-09-09T21:01:47.786Z,6.78
2022-09-09T21:04:17.559Z,6.55
2022-09-09T21:06:45.017Z,5.82
2022-09-09T21:09:12.659Z,6.20
2022-09-09T21:11:40.175Z,6.20
2022-09-09T21:14:07.293Z,6.63
2022-09-09T21:16:34.381Z,6.53
2022-09-09T21:19:01.559Z,6.70
2022-09-09T21:21:28.729Z,9.20
2022-09-09T21:23:57.494Z,6.72
2022-09-09T21:26:25.467Z,6.60
2022-09-09T21:28:53.729Z,5.97
2022-09-09T21:31:27.015Z,6.28
2022-09-09T21:33:54.904Z,6.57
2022-09-09T21:36:21.973Z,6.22
2022-09-09T21:38:49.054Z,5.97
2022-09-09T21:41:16.925Z,6.82
2022-09-09T21:43:45.604Z,6.90
2022-09-09T21:46:16.167Z,7.57
2022-09-09T21:48:43.545Z,6.65
2022-09-09T21:51:13.461Z,6.65
2022-09-09T21:53:41.035Z,7.22
2022-09-09T21:56:12.271Z,6.75
2022-09-09T21:58:40.907Z,6.65
2022-09-09T22:01:14.903Z,7.07
2022-09-09T22:03:42.796Z,7.65
2022-09-09T22:06:14.008Z,7.20
2022-09-09T22:11:12.152Z,6.22
2022-09-09T22:13:39.365Z,6.63
2022-09-09T22:16:08.184Z,6.78
2022-09-09T22:18:36.092Z,7.00
2022-09-09T22:21:08.389Z,7.38
2022-09-09T22:23:36.584Z,7.25
2022-09-09T22:26:04.931Z,6.40
2022-09-09T22:28:33.071Z,6.85
2022-09-09T22:31:00.951Z,6.47
2022-09-09T22:33:28.176Z,7.13
2022-09-09T22:35:55.367Z,7.15
2022-09-09T22:38:22.511Z,7.47
2022-09-09T22:40:49.958Z,7.95
2022-09-09T22:43:19.728Z,8.02
2022-09-09T22:45:47.375Z,7.10
2022-09-09T22:48:15.120Z,7.90
2022-09-09T22:50:42.842Z,7.45
2022-09-09T22:53:16.216Z,8.05
2022-09-09T22:55:43.892Z,7.85
2022-09-09T22:58:11.156Z,7.88
2022-09-09T23:00:41.176Z,8.10
2022-09-09T23:03:08.351Z,8.73
2022-09-09T23:05:38.792Z,8.90
2022-09-09T23:08:06.017Z,8.73
2022-09-09T23:10:33.768Z,9.15
2022-09-09T23:13:01.708Z,8.82
2022-09-09T23:15:31.431Z,8.68
2022-09-09T23:17:58.758Z,9.77
2022-09-09T23:20:26.895Z,9.45
2022-09-09T23:22:54.421Z,8.48
2022-09-09T23:25:22.878Z,9.80
2022-09-09T23:27:50.000Z,9.27
2022-09-09T23:30:17.873Z,9.60
2022-09-09T23:32:47.002Z,9.40
2022-09-09T23:35:14.210Z,11.35
2022-09-09T23:37:41.437Z,9.52
2022-09-09T23:40:08.868Z,9.00
2022-09-09T23:42:36.039Z,9.10
2022-09-09T23:45:03.171Z,9.38
2022-09-09T23:47:31.449Z,9.18
2022-09-09T23:49:59.278Z,8.40
2022-09-09T23:52:26.708Z,8.85
2022-09-09T23:54:53.772Z,8.73
2022-09-09T23:57:21.881Z,8.82
2022-09-09T23:59:49.065Z,8.57
